Latest Weather Observations for Borroloola

IDD60801

Issued at 10:31 am CST Tuesday 20 October 2020 (issued every 10 minutes, with the page automatically refreshed every 10 minutes)

About weather observations | Map of weather stations | Latest weather observations for NT | Other Formats
Station Details ID: 014723 Name: BORROLOOLA AIRPORT Lat: -16.08 Lon: 136.30 Height: 16.1 m
Data from the previous 72 hours. | See also: Recent months at Borroloola
Date/Time
CST
Temp
°C
App
Temp
°C
Dew
Point
°C
Rel
Hum
%
Delta-T
°C
Wind Press
QNH
hPa
Press
MSL
hPa
Rain since
9am
mm
Dir  Spd
km/h
Gust
km/h
Spd
kts
Gust
kts
20/10:30am 34.6 34.3 17.3 35 11.1 NNE 15 26 8 14 1011.1 1011.0 0.0
20/10:00am 33.5 33.8 18.0 39 10.0 N 13 24 7 13 1011.5 1011.4 0.0
20/09:30am 31.9 32.9 20.2 50 7.8 NNW 15 24 8 13 1011.5 1011.4 0.0
20/09:00am 31.5 32.8 21.7 56 6.6 NW 17 22 9 12 1011.5 1011.4 0.0
20/08:30am 30.3 32.1 23.2 65 4.9 NNW 19 24 10 13 1011.5 1011.4 0.0
20/08:00am 29.4 32.5 23.6 71 4.0 NNW 13 20 7 11 1011.4 1011.3 0.0
20/07:30am 26.6 30.3 21.4 73 3.5 WSW 4 9 2 5 1011.1 1011.0 0.0
20/07:00am 24.5 28.2 20.0 76 2.9 CALM 0 0 0 0 1010.6 1010.5 0.0
20/06:30am 23.0 25.6 18.3 75 3.0 N 2 6 1 3 1010.1 1010.0 0.0
20/06:00am 22.3 25.2 18.1 77 2.6 CALM 0 2 0 1 1009.7 1009.6 0.0
20/05:30am 22.4 25.6 18.8 80 2.3 CALM 0 0 0 0 1009.3 1009.2 0.0
20/05:00am 22.6 25.6 18.4 77 2.6 CALM 0 0 0 0 1009.2 1009.1 0.0
20/04:30am 22.8 24.4 17.9 74 3.1 N 6 6 3 3 1008.8 1008.7 0.0
20/04:00am 22.7 25.5 18.0 75 2.9 CALM 0 6 0 3 1008.6 1008.5 0.0
20/03:30am 23.3 27.0 19.9 81 2.2 CALM 0 0 0 0 1008.3 1008.2 0.0
20/03:00am 23.8 27.9 20.7 83 2.0 CALM 0 0 0 0 1008.4 1008.3 0.0
20/02:30am 23.9 28.1 21.0 84 1.9 CALM 0 0 0 0 1008.5 1008.4 0.0
20/02:00am 23.9 27.2 19.0 74 3.1 CALM 0 0 0 0 1008.6 1008.5 0.0
20/01:30am 24.1 26.8 17.8 68 3.9 CALM 0 0 0 0 1008.8 1008.7 0.0
20/01:00am 24.7 27.8 18.6 69 3.9 CALM 0 0 0 0 1009.1 1009.0 0.0
20/12:30am 24.8 28.1 19.0 70 3.7 CALM 0 0 0 0 1009.4 1009.3 0.0
20/12:00am 25.4 28.3 18.3 65 4.5 CALM 0 0 0 0 1009.6 1009.5 0.0
 
Date/Time
CST
Temp
°C
App
Temp
°C
Dew
Point
°C
Rel
Hum
%
Delta-T
°C
Wind Press
QNH
hPa
Press
MSL
hPa
Rain since
9am
mm
Dir  Spd
km/h
Gust
km/h
Spd
kts
Gust
kts
19/11:30pm 25.8 29.6 20.1 71 3.7 CALM 0 0 0 0 1009.9 1009.8 0.0
19/11:00pm 26.4 29.5 20.3 69 4.0 N 4 6 2 3 1010.0 1009.9 0.0
19/10:30pm 26.9 29.6 20.3 67 4.3 N 6 9 3 5 1010.1 1010.0 0.0
19/10:00pm 26.9 29.4 19.8 65 4.6 N 6 7 3 4 1010.1 1010.0 0.0
19/09:30pm 27.3 29.4 19.4 62 5.1 N 7 9 4 5 1010.0 1009.9 0.0
19/09:00pm 27.8 29.6 18.8 58 5.8 NNE 7 11 4 6 1009.8 1009.7 0.0
19/08:30pm 28.3 29.2 17.5 52 6.8 NNE 9 13 5 7 1009.5 1009.4 0.0
19/08:00pm 29.1 29.2 16.6 46 7.8 NNE 11 15 6 8 1009.1 1009.0 0.0
19/07:30pm 29.6 29.0 14.6 40 9.1 NNE 11 17 6 9 1008.9 1008.8 0.0
19/07:00pm 30.6 28.0 12.0 32 10.9 NNE 17 22 9 12 1008.7 1008.6 0.0
19/06:30pm 31.3 28.5 10.1 27 12.1 NNE 15 19 8 10 1008.3 1008.2 0.0
19/06:00pm 32.4 27.6 10.4 26 12.7 N 26 37 14 20 1007.8 1007.7 0.0
19/05:30pm 33.4 29.1 9.4 23 13.7 NNE 22 32 12 17 1007.5 1007.4 0.0
19/05:00pm 34.3 29.1 8.8 21 14.4 NNE 26 33 14 18 1007.4 1007.3 0.0
19/04:30pm 34.7 30.2 9.9 22 14.3 NNE 24 33 13 18 1007.3 1007.2 0.0
19/04:00pm 35.7 31.2 8.5 19 15.4 NNE 22 30 12 16 1007.3 1007.2 0.0
19/03:30pm 36.3 31.6 10.5 21 15.2 NNE 26 35 14 19 1007.4 1007.3 0.0
19/03:00pm 36.3 32.7 10.5 21 15.2 NNE 20 33 11 18 1007.3 1007.2 0.0
19/02:30pm 36.6 31.9 9.2 19 15.8 NNE 24 35 13 19 1007.4 1007.3 0.0
19/02:00pm 37.7 32.6 9.3 18 16.4 NNE 26 35 14 19 1007.6 1007.5 0.0
19/01:30pm 38.2 35.5 8.9 17 16.9 NNE 13 20 7 11 1008.0 1007.9 0.0
19/01:00pm 38.2 34.4 9.7 18 16.6 NE 20 30 11 16 1008.4 1008.3 0.0
19/12:30pm 37.9 34.4 10.3 19 16.3 N 19 33 10 18 1008.9 1008.8 0.0
19/12:00pm 38.2 35.6 12.0 21 15.8 NNE 17 26 9 14 1009.5 1009.4 0.0
19/11:30am 36.3 34.8 11.9 23 14.6 NNE 11 20 6 11 1009.9 1009.8 0.0
19/11:00am 37.4 34.7 12.8 23 15.0 NNW 19 30 10 16 1010.3 1010.2 0.0
19/10:30am 36.7 34.7 12.8 24 14.5 NNW 15 24 8 13 1010.7 1010.6 0.0
19/10:00am 35.4 34.8 13.5 26 13.4 NNE 9 17 5 9 1010.9 1010.8 0.0
19/09:30am 33.2 32.8 15.2 33 11.2 NNW 11 19 6 10 1011.1 1011.0 0.0
19/09:00am 32.5 33.0 17.5 40 9.6 NW 11 17 6 9 1011.2 1011.1 0.0
19/08:30am 30.6 32.5 20.5 54 6.7 NNW 11 15 6 8 1011.3 1011.2 0.0
19/08:00am 28.1 31.8 22.3 70 3.9 NW 6 9 3 5 1011.4 1011.3 0.0
19/07:30am 26.5 30.3 21.7 75 3.2 W 4 9 2 5 1011.3 1011.2 0.0
19/07:00am 25.0 29.0 20.5 76 2.9 CALM 0 6 0 3 1011.0 1010.9 0.0
19/06:30am 22.8 26.2 19.4 81 2.2 CALM 0 0 0 0 1010.7 1010.6 0.0
19/06:00am 22.1 25.3 18.9 82 2.0 CALM 0 0 0 0 1010.4 1010.3 0.0
19/05:30am 22.3 25.6 19.1 82 2.0 CALM 0 0 0 0 1010.0 1009.9 0.0
19/05:00am 22.5 26.2 19.9 85 1.7 CALM 0 0 0 0 1010.0 1009.9 0.0
19/04:30am 22.8 26.1 19.0 79 2.4 CALM 0 0 0 0 1009.7 1009.6 0.0
19/04:00am 22.9 26.5 19.7 82 2.1 CALM 0 0 0 0 1009.5 1009.4 0.0
19/03:30am 23.4 26.6 18.9 76 2.9 CALM 0 0 0 0 1009.4 1009.3 0.0
19/03:00am 23.6 27.0 19.3 77 2.8 CALM 0 0 0 0 1009.3 1009.2 0.0
19/02:30am 24.0 28.5 21.5 86 1.7 CALM 0 0 0 0 1009.4 1009.3 0.0
19/02:00am 24.5 29.0 21.6 84 1.9 CALM 0 0 0 0 1009.6 1009.5 0.0
19/01:30am 24.7 28.6 21.8 84 1.9 N 4 6 2 3 1009.7 1009.6 0.0
19/01:00am 25.1 29.0 21.8 82 2.2 NNE 4 7 2 4 1010.2 1010.1 0.0
19/12:30am 25.1 29.3 21.0 78 2.7 CALM 0 0 0 0 1010.3 1010.2 0.0
19/12:00am 25.4 29.9 21.5 79 2.6 CALM 0 0 0 0 1010.5 1010.4 0.0
 
Date/Time
CST
Temp
°C
App
Temp
°C
Dew
Point
°C
Rel
Hum
%
Delta-T
°C
Wind Press
QNH
hPa
Press
MSL
hPa
Rain since
9am
mm
Dir  Spd
km/h
Gust
km/h
Spd
kts
Gust
kts
18/11:30pm 25.7 29.1 21.6 78 2.7 NNE 6 7 3 4 1010.7 1010.6 0.0
18/11:00pm 26.1 29.5 21.7 77 2.9 NE 6 7 3 4 1010.8 1010.7 0.0
18/10:30pm 26.2 29.5 21.4 75 3.2 NNE 6 7 3 4 1010.7 1010.6 0.0
18/10:00pm 26.7 29.8 21.5 73 3.5 NNE 7 9 4 5 1010.6 1010.5 0.0
18/09:30pm 27.2 29.6 21.5 71 3.8 N 11 15 6 8 1010.5 1010.4 0.0
18/09:00pm 27.4 30.0 21.2 69 4.1 NNE 9 15 5 8 1010.3 1010.2 0.0
18/08:30pm 27.8 29.6 21.1 67 4.5 N 13 20 7 11 1009.8 1009.7 0.0
18/08:00pm 28.2 29.9 21.0 65 4.8 NNE 13 19 7 10 1009.5 1009.4 0.0
18/07:30pm 28.7 29.7 21.0 63 5.1 NNE 17 24 9 13 1009.3 1009.2 0.0
18/07:00pm 29.7 30.0 19.7 55 6.5 NNE 17 22 9 12 1008.9 1008.8 0.0
18/06:30pm 31.2 29.4 14.4 36 10.2 NNE 17 28 9 15 1008.5 1008.4 0.0
18/06:00pm 32.0 30.1 15.1 36 10.4 NNE 19 26 10 14 1008.2 1008.1 0.0
18/05:30pm 33.3 30.9 13.9 31 11.8 NE 19 28 10 15 1008.0 1007.9 0.0
18/05:00pm 33.6 30.4 13.1 29 12.4 NNE 22 32 12 17 1007.9 1007.8 0.0
18/04:30pm 34.5 31.7 14.4 30 12.4 NE 22 33 12 18 1007.9 1007.8 0.0
18/04:00pm 35.5 33.0 13.6 26 13.4 NE 19 26 10 14 1008.1 1008.0 0.0
18/03:30pm 35.2 33.0 15.0 30 12.6 NNE 20 30 11 16 1008.3 1008.2 0.0
18/03:00pm 35.6 33.5 15.3 29 12.7 NNE 20 32 11 17 1008.4 1008.3 0.0
18/02:30pm 35.5 33.1 16.3 32 12.2 NNE 24 39 13 21 1008.6 1008.5 0.0
18/02:00pm 35.2 33.2 16.5 33 11.9 NE 22 39 12 21 1008.8 1008.7 0.0
18/01:30pm 36.0 33.9 17.2 33 12.1 NE 24 37 13 20 1009.0 1008.9 0.0
18/01:00pm 37.1 35.0 16.1 29 13.4 NNE 22 37 12 20 1009.1 1009.0 0.0
18/12:30pm 38.1 35.4 10.5 19 16.3 N 15 30 8 16 1009.6 1009.5 0.0
18/12:00pm 36.5 34.7 13.3 25 14.2 NNE 15 26 8 14 1010.3 1010.2 0.0
18/11:30am 36.0 33.5 12.3 24 14.3 N 17 26 9 14 1010.9 1010.8 0.0
18/11:00am 34.9 32.3 13.1 27 13.2 N 19 30 10 16 1011.4 1011.3 0.0
18/10:30am 35.1 33.9 13.9 28 13.0 NNE 13 22 7 12 1011.5 1011.4 0.0
18/10:00am 33.2 33.1 16.1 35 10.8 WNW 11 20 6 11 1011.9 1011.8 0.0
18/09:30am 32.3 34.3 18.8 44 8.8 WSW 6 17 3 9 1012.1 1012.0 0.0
18/09:00am 30.8 33.1 20.7 55 6.7 WSW 9 15 5 8 1012.3 1012.2 0.0
18/08:30am 29.3 32.2 21.8 64 5.1 WNW 9 17 5 9 1012.2 1012.1 0.0
18/08:00am 27.7 31.4 21.5 69 4.1 W 4 7 2 4 1012.0 1011.9 0.0
18/07:30am 26.0 29.2 21.2 75 3.2 SSW 6 9 3 5 1011.7 1011.6 0.0
18/07:00am 24.2 28.4 20.9 82 2.2 CALM 0 6 0 3 1011.3 1011.2 0.0
18/06:30am 22.7 24.7 20.0 85 1.7 WSW 9 11 5 6 1010.9 1010.8 0.0
18/06:00am 21.9 25.5 19.8 88 1.3 CALM 0 0 0 0 1010.3 1010.2 0.0
18/05:30am 22.1 25.7 19.8 87 1.5 CALM 0 0 0 0 1009.8 1009.7 0.0
18/05:00am 22.4 24.9 19.8 85 1.7 ESE 6 7 3 4 1009.6 1009.5 0.0
18/04:30am 22.6 24.7 19.0 80 2.3 WSW 6 7 3 4 1009.3 1009.2 0.0
18/04:00am 22.9 26.1 18.9 78 2.5 CALM 0 0 0 0 1009.2 1009.1 0.0
18/03:30am 23.0 26.3 19.2 79 2.4 CALM 0 0 0 0 1009.2 1009.1 0.0
18/03:00am 23.5 25.4 19.0 76 2.9 WSW 7 7 4 4 1009.2 1009.1 0.0
18/02:30am 23.6 26.9 19.1 76 2.9 CALM 0 0 0 0 1009.1 1009.0 0.0
18/02:00am 24.0 27.7 19.9 78 2.6 CALM 0 0 0 0 1009.3 1009.2 0.0
18/01:30am 23.8 27.6 20.1 80 2.4 CALM 0 0 0 0 1009.7 1009.6 0.0
18/01:00am 24.7 27.5 20.4 77 2.8 N 6 7 3 4 1009.9 1009.8 0.0
18/12:30am 24.8 28.6 20.1 75 3.1 CALM 0 0 0 0 1010.3 1010.2 0.0
18/12:00am 25.3 29.1 21.0 77 2.8 N 2 6 1 3 1010.3 1010.2 0.0
 
Date/Time
CST
Temp
°C
App
Temp
°C
Dew
Point
°C
Rel
Hum
%
Delta-T
°C
Wind Press
QNH
hPa
Press
MSL
hPa
Rain since
9am
mm
Dir  Spd
km/h
Gust
km/h
Spd
kts
Gust
kts
17/11:30pm 25.5 28.6 21.0 76 3.0 NNE 6 7 3 4 1010.6 1010.5 0.0
17/11:00pm 25.7 28.4 20.7 74 3.3 NNE 7 9 4 5 1010.9 1010.8 0.0
17/10:30pm 26.1 28.8 20.7 72 3.6 NNE 7 9 4 5 1010.9 1010.8 0.0
17/10:00pm 26.5 28.8 20.6 70 3.9 NNE 9 11 5 6 1010.8 1010.7 0.0
17/09:30pm 26.9 29.2 20.7 69 4.1 NNE 9 13 5 7 1010.6 1010.5 0.0
17/09:00pm 27.2 29.1 20.5 67 4.4 NNE 11 15 6 8 1010.4 1010.3 0.0
17/08:30pm 27.5 28.9 20.3 65 4.7 NNE 13 20 7 11 1010.0 1009.9 0.0
17/08:00pm 27.9 28.3 19.9 61 5.2 NNE 17 24 9 13 1009.7 1009.6 0.0
17/07:30pm 28.5 28.1 18.9 56 6.2 NNE 19 28 10 15 1009.5 1009.4 0.0
17/07:00pm 29.2 28.3 17.7 50 7.3 NNE 19 26 10 14 1009.1 1009.0 0.0
17/06:30pm 29.7 28.5 17.5 48 7.8 NNE 20 28 11 15 1008.7 1008.6 0.0
17/06:00pm 30.7 29.5 17.4 45 8.5 NE 20 30 11 16 1008.4 1008.3 0.0
17/05:30pm 32.1 30.3 17.9 42 9.1 NE 24 33 13 18 1008.0 1007.9 0.0
17/05:00pm 33.7 32.1 16.6 36 10.8 NE 20 32 11 17 1007.8 1007.7 0.0
17/04:30pm 34.5 33.2 16.8 34 11.3 NNE 19 32 10 17 1007.7 1007.6 0.0
17/04:00pm 34.5 32.9 16.4 34 11.5 NNE 20 30 11 16 1007.8 1007.7 0.0
17/03:30pm 35.0 32.0 15.8 31 12.1 N 26 35 14 19 1007.8 1007.7 0.0
17/03:00pm 34.4 32.3 16.3 34 11.5 NNE 22 35 12 19 1008.1 1008.0 0.0
17/02:30pm 34.3 32.7 16.6 34 11.3 NNE 20 33 11 18 1008.2 1008.1 0.0
17/02:00pm 34.6 33.5 17.8 37 10.9 NE 20 33 11 18 1008.4 1008.3 0.0
17/01:30pm 35.7 34.1 15.9 30 12.5 NNE 19 30 10 16 1008.7 1008.6 0.0
17/01:00pm 35.0 33.9 16.3 32 11.9 NNE 17 28 9 15 1009.2 1009.1 0.0
17/12:30pm 35.6 33.2 13.7 27 13.4 NE 19 30 10 16 1009.7 1009.6 0.0
17/12:00pm 35.1 32.0 13.3 27 13.3 NNE 22 32 12 17 1010.2 1010.1 0.0
17/11:30am 35.1 30.8 10.9 23 14.2 NNE 24 35 13 19 1010.5 1010.4 0.0
17/11:00am 35.5 32.9 13.1 26 13.6 NNE 19 28 10 15 1010.9 1010.8 0.0

Other formats

Comma delimited format used in spreadsheet applications
http://www.bom.gov.au/fwo/IDD60801/IDD60801.94152.axf

JavaScript Object Notation format (JSON) in row-major order
http://www.bom.gov.au/fwo/IDD60801/IDD60801.94152.json

Data quality

Most of these data are generated automatically and are frequently updated. Quality checks on data are not normally performed. It is possible for incorrect values to appear. Refer to information at About Latest Weather Observations and please check the disclaimer before using these data.